createdAt,value
2019-02-14T00:02:22.826Z,0.83
2019-02-14T00:05:16.586Z,0.98
2019-02-14T00:08:03.410Z,0.98
2019-02-14T00:10:53.034Z,0.79
2019-02-14T00:13:42.857Z,0.86
2019-02-14T00:16:32.285Z,0.85
2019-02-14T00:19:22.335Z,0.78
2019-02-14T00:22:11.753Z,0.74
2019-02-14T00:25:01.750Z,0.69
2019-02-14T00:27:51.181Z,0.65
2019-02-14T00:30:40.465Z,0.75
2019-02-14T00:33:29.836Z,0.69
2019-02-14T00:36:19.012Z,0.72
2019-02-14T00:39:08.463Z,0.87
2019-02-14T00:41:58.327Z,0.81
2019-02-14T00:44:47.812Z,0.54
2019-02-14T00:47:37.468Z,0.61
2019-02-14T00:50:26.914Z,0.46
2019-02-14T00:53:18.838Z,0.53
2019-02-14T00:56:08.387Z,0.53
2019-02-14T00:58:58.607Z,0.62
2019-02-14T01:01:48.560Z,0.50
2019-02-14T01:04:38.453Z,0.35
2019-02-14T01:07:27.949Z,0.47
2019-02-14T01:10:18.268Z,0.52
2019-02-14T01:13:07.551Z,0.36
2019-02-14T01:15:57.679Z,0.37
2019-02-14T01:18:46.996Z,0.38
2019-02-14T01:21:36.130Z,0.50
2019-02-14T01:24:25.519Z,0.53
2019-02-14T01:27:15.192Z,0.48
2019-02-14T01:30:05.066Z,0.37
2019-02-14T01:32:55.161Z,0.43
2019-02-14T01:35:44.950Z,0.35
2019-02-14T01:38:34.038Z,0.45
2019-02-14T01:41:24.165Z,0.49
2019-02-14T01:44:13.360Z,0.71
2019-02-14T01:47:02.642Z,0.64
2019-02-14T01:49:52.582Z,0.66
2019-02-14T01:56:13.684Z,0.71
2019-02-14T01:59:03.114Z,0.69
2019-02-14T02:01:53.102Z,0.91
2019-02-14T02:04:42.608Z,0.70
2019-02-14T02:07:32.636Z,0.72
2019-02-14T02:10:22.277Z,0.73
2019-02-14T02:13:14.839Z,0.72
2019-02-14T02:16:04.006Z,0.75
2019-02-14T02:18:53.644Z,0.72
2019-02-14T02:21:43.174Z,0.62
2019-02-14T02:24:32.875Z,0.73
2019-02-14T02:27:22.328Z,0.76
2019-02-14T02:30:13.560Z,0.74
2019-02-14T02:33:03.165Z,0.74
2019-02-14T02:36:00.158Z,0.76
2019-02-14T02:38:44.057Z,0.77
2019-02-14T02:41:33.715Z,0.68
2019-02-14T02:44:22.816Z,0.76
2019-02-14T02:47:16.056Z,0.77
2019-02-14T02:50:06.457Z,0.72
2019-02-14T02:52:55.670Z,0.72
2019-02-14T02:55:45.144Z,0.74
2019-02-14T02:58:35.083Z,0.80
2019-02-14T03:01:24.425Z,0.80
2019-02-14T03:04:13.799Z,0.91
2019-02-14T03:07:02.936Z,0.94
2019-02-14T03:09:52.576Z,1.00
2019-02-14T03:12:42.012Z,1.05
2019-02-14T03:15:31.707Z,0.98
2019-02-14T03:18:21.115Z,1.01
2019-02-14T03:21:14.672Z,0.99
2019-02-14T03:24:04.678Z,0.96
2019-02-14T03:26:54.674Z,0.90
2019-02-14T03:29:44.069Z,0.91
2019-02-14T03:32:35.231Z,0.97
2019-02-14T03:35:24.778Z,1.09
2019-02-14T03:38:14.530Z,1.00
2019-02-14T03:41:03.854Z,1.13
2019-02-14T03:43:53.451Z,1.20
2019-02-14T03:46:42.723Z,1.31
2019-02-14T03:49:32.378Z,1.29
2019-02-14T03:52:21.600Z,1.21
2019-02-14T03:55:13.282Z,1.35
2019-02-14T03:58:02.863Z,1.34
2019-02-14T04:00:52.513Z,1.27
2019-02-14T04:03:41.786Z,1.26
2019-02-14T04:06:31.330Z,1.20
2019-02-14T04:09:20.803Z,1.12
2019-02-14T04:12:10.690Z,1.24
2019-02-14T04:14:59.879Z,1.25
2019-02-14T04:17:49.366Z,1.24
2019-02-14T04:20:39.318Z,1.32
2019-02-14T04:23:28.593Z,1.33
2019-02-14T04:26:18.096Z,1.42
2019-02-14T04:29:07.785Z,1.32
2019-02-14T04:31:57.467Z,1.29
2019-02-14T04:34:46.998Z,1.43
2019-02-14T04:37:36.712Z,1.61
2019-02-14T04:40:33.451Z,1.50
2019-02-14T04:43:17.289Z,1.42
2019-02-14T04:46:06.641Z,1.39
2019-02-14T04:48:55.982Z,1.49
2019-02-14T04:51:45.244Z,1.55
2019-02-14T04:54:34.844Z,1.66
2019-02-14T04:57:24.209Z,1.64
2019-02-14T05:00:14.106Z,1.50
2019-02-14T05:03:03.447Z,1.43
2019-02-14T05:05:52.951Z,1.43
2019-02-14T05:08:42.067Z,1.40
2019-02-14T05:11:32.125Z,1.37
2019-02-14T05:14:21.574Z,1.53
2019-02-14T05:17:16.301Z,1.54
2019-02-14T05:20:06.878Z,1.49
2019-02-14T05:22:56.681Z,1.65
2019-02-14T05:25:46.534Z,1.64
2019-02-14T05:28:36.120Z,1.63
2019-02-14T05:31:25.994Z,1.58
2019-02-14T05:34:15.297Z,1.61
2019-02-14T05:37:04.678Z,1.57
2019-02-14T05:39:54.566Z,1.56
2019-02-14T05:42:44.129Z,1.53
2019-02-14T05:45:34.149Z,1.52
2019-02-14T05:48:23.975Z,1.54
2019-02-14T05:51:14.914Z,1.48
2019-02-14T05:54:05.152Z,1.44
2019-02-14T05:56:54.536Z,1.46
2019-02-14T05:59:44.210Z,1.44
2019-02-14T06:02:33.659Z,1.51
2019-02-14T06:05:23.698Z,1.61
2019-02-14T06:08:13.377Z,1.57
2019-02-14T06:11:02.674Z,1.58
2019-02-14T06:13:52.769Z,1.55
2019-02-14T06:16:42.016Z,1.46
2019-02-14T06:19:31.962Z,1.41
2019-02-14T06:22:21.145Z,1.37
2019-02-14T06:25:14.594Z,1.46
2019-02-14T06:28:03.927Z,1.33
2019-02-14T06:30:53.083Z,1.39
2019-02-14T06:33:44.349Z,1.42
2019-02-14T06:36:33.926Z,1.49
2019-02-14T06:39:23.750Z,1.49
2019-02-14T06:42:13.533Z,1.44
2019-02-14T06:45:03.009Z,1.44
2019-02-14T06:47:52.691Z,1.57
2019-02-14T06:50:42.086Z,1.57
2019-02-14T06:53:32.041Z,1.53
2019-02-14T06:56:21.317Z,1.67
2019-02-14T06:59:11.280Z,1.61
2019-02-14T07:02:01.470Z,1.61
2019-02-14T07:04:51.208Z,1.68
2019-02-14T07:07:40.508Z,1.70
2019-02-14T07:10:30.463Z,1.64
2019-02-14T07:13:20.044Z,1.61
2019-02-14T07:16:09.850Z,1.59
2019-02-14T07:19:01.952Z,1.67
2019-02-14T07:21:51.695Z,1.76
2019-02-14T07:24:41.257Z,1.73
2019-02-14T07:27:31.002Z,1.69
2019-02-14T07:30:20.923Z,1.71
2019-02-14T07:33:16.008Z,1.79
2019-02-14T07:36:05.476Z,1.73
2019-02-14T07:38:54.906Z,1.85
2019-02-14T07:41:44.937Z,1.95
2019-02-14T07:44:34.394Z,2.07
2019-02-14T07:47:24.073Z,2.24
2019-02-14T07:50:13.457Z,2.37
2019-02-14T07:53:03.370Z,2.28
2019-02-14T07:55:53.878Z,2.47
2019-02-14T07:58:43.577Z,2.54
2019-02-14T08:01:32.855Z,2.68
2019-02-14T08:04:22.095Z,2.74
2019-02-14T08:07:16.434Z,2.88
2019-02-14T08:10:06.463Z,2.90
2019-02-14T08:12:56.430Z,2.97
2019-02-14T08:15:45.987Z,3.06
2019-02-14T08:18:35.911Z,3.14
2019-02-14T08:21:25.370Z,3.15
2019-02-14T08:24:15.037Z,3.12
2019-02-14T08:27:04.584Z,3.12
2019-02-14T08:29:53.967Z,3.16
2019-02-14T08:32:43.401Z,3.19
2019-02-14T08:35:32.715Z,3.26
2019-02-14T08:38:22.875Z,3.31
2019-02-14T08:41:12.242Z,3.32
2019-02-14T08:44:03.378Z,3.40
2019-02-14T08:46:52.451Z,3.60
2019-02-14T08:49:42.102Z,3.61
2019-02-14T08:52:31.580Z,3.67
2019-02-14T08:55:21.342Z,3.68
2019-02-14T08:58:10.753Z,3.85
2019-02-14T09:01:00.926Z,3.69
2019-02-14T09:03:50.238Z,3.81
2019-02-14T09:06:39.194Z,3.95
2019-02-14T09:09:28.662Z,4.19
2019-02-14T09:12:18.705Z,4.29
2019-02-14T09:15:11.964Z,4.64
2019-02-14T09:18:01.420Z,4.72
2019-02-14T09:20:50.956Z,4.85
2019-02-14T09:23:42.400Z,4.94
2019-02-14T09:26:31.723Z,5.09
2019-02-14T09:29:21.394Z,5.44
2019-02-14T09:32:10.911Z,5.44
2019-02-14T09:35:00.301Z,5.64
2019-02-14T09:37:49.847Z,5.58
2019-02-14T09:40:39.290Z,5.70
2019-02-14T09:43:30.078Z,5.75
2019-02-14T09:46:19.706Z,5.83
2019-02-14T09:49:11.006Z,5.81
2019-02-14T09:52:00.347Z,5.78
2019-02-14T09:54:50.274Z,5.52
2019-02-14T09:57:39.693Z,5.67
2019-02-14T10:00:29.561Z,5.73
2019-02-14T10:03:19.108Z,5.73
2019-02-14T10:06:09.316Z,5.87
2019-02-14T10:09:01.632Z,5.99
2019-02-14T10:11:51.963Z,6.21
2019-02-14T10:14:52.255Z,6.03
2019-02-14T10:17:42.143Z,6.09
2019-02-14T10:20:31.671Z,5.93
2019-02-14T10:23:21.254Z,6.14
2019-02-14T10:26:10.566Z,6.20
2019-02-14T10:29:02.815Z,6.30
2019-02-14T10:31:52.048Z,6.39
2019-02-14T10:34:41.683Z,6.41
2019-02-14T10:37:30.892Z,6.55
2019-02-14T10:40:20.861Z,6.48
2019-02-14T10:43:10.405Z,6.56
2019-02-14T10:46:00.406Z,6.69
2019-02-14T10:48:50.109Z,6.87
2019-02-14T10:51:39.987Z,6.73
2019-02-14T10:54:29.207Z,6.92
2019-02-14T10:57:18.789Z,6.85
2019-02-14T11:00:16.345Z,6.70
2019-02-14T11:03:06.823Z,6.75
2019-02-14T11:05:55.997Z,6.87
2019-02-14T11:08:45.514Z,6.84
2019-02-14T11:11:35.185Z,6.78
2019-02-14T11:14:29.121Z,6.77
2019-02-14T11:17:15.615Z,7.04
2019-02-14T11:20:06.612Z,7.51
2019-02-14T11:22:56.231Z,7.56
2019-02-14T11:25:45.609Z,7.84
2019-02-14T11:28:35.105Z,8.03
2019-02-14T11:31:25.019Z,8.01
2019-02-14T11:34:14.502Z,8.16
2019-02-14T11:37:03.876Z,8.37
2019-02-14T11:39:53.574Z,8.84
2019-02-14T11:42:43.178Z,8.59
2019-02-14T11:45:32.616Z,8.92
2019-02-14T11:48:21.614Z,8.47
2019-02-14T11:51:11.308Z,8.63
2019-02-14T11:54:03.259Z,8.54
2019-02-14T11:56:52.748Z,9.28
2019-02-14T11:59:42.187Z,10.26
2019-02-14T12:02:31.799Z,10.64
2019-02-14T12:05:21.983Z,10.62
2019-02-14T12:08:11.228Z,10.67
2019-02-14T12:11:01.170Z,11.84
2019-02-14T12:13:50.799Z,10.75
2019-02-14T12:16:40.463Z,11.66
2019-02-14T12:19:29.903Z,12.51
2019-02-14T12:22:19.856Z,12.62
2019-02-14T12:28:46.057Z,13.31
2019-02-14T12:31:35.198Z,11.60
2019-02-14T12:34:24.454Z,11.20
2019-02-14T12:37:16.065Z,10.21
2019-02-14T12:40:06.637Z,9.97
2019-02-14T12:42:56.372Z,10.04
2019-02-14T12:45:46.132Z,10.43
2019-02-14T12:48:35.266Z,10.18
2019-02-14T12:51:24.889Z,10.84
2019-02-14T12:54:14.356Z,11.22
2019-02-14T12:57:03.965Z,11.13
2019-02-14T12:59:53.184Z,10.99
2019-02-14T13:02:43.373Z,10.96
2019-02-14T13:05:33.658Z,10.86
2019-02-14T13:08:22.983Z,10.02
2019-02-14T13:11:12.471Z,9.93
2019-02-14T13:14:04.713Z,10.02
2019-02-14T13:16:54.131Z,10.44
2019-02-14T13:19:43.317Z,10.44
2019-02-14T13:22:32.537Z,10.39
2019-02-14T13:25:21.777Z,10.33
2019-02-14T13:28:11.463Z,10.61
2019-02-14T13:31:00.734Z,10.50
2019-02-14T13:33:50.741Z,10.52
2019-02-14T13:36:40.212Z,10.54
2019-02-14T13:39:32.382Z,11.24
2019-02-14T13:42:21.038Z,11.39
2019-02-14T13:45:12.767Z,11.67
2019-02-14T13:48:02.228Z,11.78
2019-02-14T13:50:51.965Z,11.78
2019-02-14T13:53:41.494Z,11.60
2019-02-14T13:56:30.728Z,11.43
2019-02-14T13:59:20.256Z,11.27
2019-02-14T14:02:09.651Z,11.59
2019-02-14T14:04:59.333Z,11.14
2019-02-14T14:07:48.954Z,11.37
2019-02-14T14:10:38.951Z,11.73
2019-02-14T14:13:28.435Z,11.19
2019-02-14T14:16:18.046Z,11.31
2019-02-14T14:19:07.950Z,11.43
2019-02-14T14:21:57.094Z,12.07
2019-02-14T14:24:46.635Z,12.43
2019-02-14T14:27:36.141Z,12.28
2019-02-14T14:30:25.735Z,12.21
2019-02-14T14:33:15.413Z,12.96
2019-02-14T14:36:04.622Z,13.60
2019-02-14T14:38:54.302Z,13.05
2019-02-14T14:41:43.856Z,13.51
2019-02-14T14:44:58.996Z,14.38
2019-02-14T14:47:48.485Z,14.24
2019-02-14T14:50:37.939Z,15.56
2019-02-14T14:53:27.084Z,14.98
2019-02-14T14:56:16.679Z,16.18
2019-02-14T14:59:06.089Z,13.92
2019-02-14T15:01:56.224Z,15.07
2019-02-14T15:04:45.475Z,13.25
2019-02-14T15:07:35.841Z,13.79
2019-02-14T15:10:25.076Z,14.66
2019-02-14T15:13:15.039Z,15.28
2019-02-14T15:16:04.235Z,16.34
2019-02-14T15:18:54.447Z,15.29
2019-02-14T15:21:43.795Z,15.69
2019-02-14T15:24:33.228Z,14.64
2019-02-14T15:27:22.460Z,13.57
2019-02-14T15:30:12.440Z,14.49
2019-02-14T15:33:02.063Z,15.32
2019-02-14T15:35:51.994Z,14.51
2019-02-14T15:38:41.417Z,13.41
2019-02-14T15:41:30.999Z,12.44
2019-02-14T15:44:20.184Z,11.06
2019-02-14T15:47:10.496Z,9.63
2019-02-14T15:50:00.004Z,9.03
2019-02-14T15:52:52.219Z,8.54
2019-02-14T15:55:43.590Z,8.19
2019-02-14T15:58:33.108Z,8.33
2019-02-14T16:01:22.570Z,8.36
2019-02-14T16:04:12.013Z,8.19
2019-02-14T16:07:02.213Z,8.06
2019-02-14T16:09:52.164Z,7.34
2019-02-14T16:12:43.555Z,7.36
2019-02-14T16:15:33.806Z,7.20
2019-02-14T16:18:23.571Z,7.15
2019-02-14T16:21:20.357Z,7.22
2019-02-14T16:24:09.742Z,6.92
2019-02-14T16:27:01.171Z,6.71
2019-02-14T16:29:50.949Z,6.65
2019-02-14T16:32:41.198Z,6.47
2019-02-14T16:35:30.447Z,6.20
2019-02-14T16:38:20.720Z,6.30
2019-02-14T16:41:10.552Z,6.12
2019-02-14T16:44:02.142Z,5.75
2019-02-14T16:46:51.615Z,5.68
2019-02-14T16:49:41.352Z,5.63
2019-02-14T16:52:30.490Z,5.63
2019-02-14T16:55:20.345Z,5.46
2019-02-14T16:58:10.225Z,5.37
2019-02-14T17:00:59.865Z,5.14
2019-02-14T17:03:49.426Z,5.22
2019-02-14T17:06:39.725Z,5.15
2019-02-14T17:09:28.942Z,4.94
2019-02-14T17:12:18.413Z,4.79
2019-02-14T17:15:08.969Z,4.69
2019-02-14T17:17:58.169Z,4.82
2019-02-14T17:20:47.613Z,4.98
2019-02-14T17:23:37.396Z,5.11
2019-02-14T17:26:27.429Z,4.73
2019-02-14T17:29:17.064Z,4.70
2019-02-14T17:32:06.249Z,4.66
2019-02-14T17:34:55.897Z,4.78
2019-02-14T17:37:45.058Z,4.61
2019-02-14T17:40:34.402Z,4.56
2019-02-14T17:43:24.323Z,4.45
2019-02-14T17:46:14.206Z,4.44
2019-02-14T17:49:03.891Z,4.51
2019-02-14T17:51:53.146Z,4.45
2019-02-14T17:54:42.753Z,4.38
2019-02-14T17:57:31.957Z,4.05
2019-02-14T18:00:21.336Z,4.08
2019-02-14T18:03:11.962Z,4.13
2019-02-14T18:06:01.468Z,3.97
2019-02-14T18:08:50.652Z,3.94
2019-02-14T18:11:40.501Z,3.91
2019-02-14T18:14:29.728Z,3.96
2019-02-14T18:17:19.413Z,3.95
2019-02-14T18:20:10.052Z,3.92
2019-02-14T18:22:59.583Z,3.88
2019-02-14T18:25:48.845Z,3.91
2019-02-14T18:28:38.031Z,3.86
2019-02-14T18:31:28.011Z,3.86
2019-02-14T18:34:17.580Z,3.91
2019-02-14T18:37:07.352Z,3.71
2019-02-14T18:39:56.860Z,3.71
2019-02-14T18:42:46.757Z,3.74
2019-02-14T18:45:36.213Z,3.77
2019-02-14T18:48:26.099Z,3.75
2019-02-14T18:51:15.561Z,3.69
2019-02-14T18:54:04.922Z,3.64
2019-02-14T18:56:54.143Z,3.58
2019-02-14T18:59:43.945Z,3.52
2019-02-14T19:02:33.382Z,3.46
2019-02-14T19:05:23.555Z,3.39
2019-02-14T19:08:13.139Z,3.27
2019-02-14T19:11:03.467Z,3.17
2019-02-14T19:13:54.311Z,3.18
2019-02-14T19:16:44.495Z,3.16
2019-02-14T19:19:34.122Z,3.07
2019-02-14T19:22:23.530Z,3.13
2019-02-14T19:25:14.429Z,3.10
2019-02-14T19:28:03.847Z,3.01
2019-02-14T19:30:53.492Z,2.95
2019-02-14T19:33:43.077Z,2.77
2019-02-14T19:36:32.633Z,2.78
2019-02-14T19:39:22.597Z,2.32
2019-02-14T19:42:12.176Z,2.74
2019-02-14T19:45:02.026Z,2.72
2019-02-14T19:47:52.287Z,2.73
2019-02-14T19:50:41.649Z,2.63
2019-02-14T19:53:31.109Z,2.72
2019-02-14T19:56:20.740Z,2.68
2019-02-14T19:59:09.961Z,2.70
2019-02-14T20:01:59.320Z,2.67
2019-02-14T20:04:49.071Z,2.62
2019-02-14T20:07:38.892Z,2.43
2019-02-14T20:10:28.051Z,2.40
2019-02-14T20:13:17.867Z,2.39
2019-02-14T20:16:07.059Z,2.33
2019-02-14T20:18:57.095Z,2.38
2019-02-14T20:28:34.689Z,2.37
2019-02-14T20:31:24.660Z,2.36
2019-02-14T20:34:14.090Z,2.26
2019-02-14T20:37:03.804Z,2.20
2019-02-14T20:39:53.236Z,2.14
2019-02-14T20:43:20.292Z,2.14
2019-02-14T20:46:10.258Z,1.97
2019-02-14T20:49:00.420Z,2.14
2019-02-14T20:51:49.564Z,2.18
2019-02-14T20:54:39.121Z,2.15
2019-02-14T20:57:28.297Z,2.14
2019-02-14T21:00:32.929Z,2.13
2019-02-14T21:03:22.210Z,2.04
2019-02-14T21:06:11.549Z,2.07
2019-02-14T21:09:05.036Z,2.05
2019-02-14T21:11:55.133Z,1.99
2019-02-14T21:14:45.089Z,1.98
2019-02-14T21:17:34.496Z,1.97
2019-02-14T21:20:23.749Z,2.06
2019-02-14T21:23:16.153Z,2.14
2019-02-14T21:26:05.893Z,2.00
2019-02-14T21:28:55.283Z,1.84
2019-02-14T21:31:45.514Z,1.68
2019-02-14T21:34:34.783Z,1.75
2019-02-14T21:37:24.546Z,1.80
2019-02-14T21:40:14.104Z,1.89
2019-02-14T21:43:03.841Z,1.86
2019-02-14T21:45:53.789Z,1.93
2019-02-14T21:48:43.126Z,1.95
2019-02-14T21:51:33.004Z,1.95
2019-02-14T21:54:22.804Z,1.97
2019-02-14T21:57:13.767Z,2.00
2019-02-14T22:00:03.785Z,1.94
2019-02-14T22:02:53.172Z,1.96
2019-02-14T22:05:42.608Z,2.04
2019-02-14T22:08:32.015Z,1.86
2019-02-14T22:11:22.104Z,1.84
2019-02-14T22:14:11.488Z,1.82
2019-02-14T22:17:01.153Z,1.82
2019-02-14T22:19:50.331Z,1.80
2019-02-14T22:22:39.760Z,1.78
2019-02-14T22:25:29.330Z,1.83
2019-02-14T22:28:18.890Z,1.87
2019-02-14T22:31:08.603Z,1.87
2019-02-14T22:33:58.203Z,1.86
2019-02-14T22:36:47.591Z,2.01
2019-02-14T22:39:37.189Z,1.84
2019-02-14T22:42:26.721Z,1.84
2019-02-14T22:45:16.932Z,1.81
2019-02-14T22:48:06.651Z,1.88
2019-02-14T22:51:23.032Z,1.80
2019-02-14T22:54:12.706Z,1.75
2019-02-14T22:57:02.037Z,1.75
2019-02-14T22:59:51.225Z,1.39
2019-02-14T23:02:42.848Z,1.43
2019-02-14T23:05:32.817Z,1.39
2019-02-14T23:08:22.364Z,1.46
2019-02-14T23:11:12.293Z,1.23
2019-02-14T23:14:01.924Z,1.30
2019-02-14T23:16:51.223Z,1.40
2019-02-14T23:19:41.195Z,1.13
2019-02-14T23:22:30.764Z,1.14
2019-02-14T23:25:20.142Z,1.14
2019-02-14T23:28:09.913Z,1.12
2019-02-14T23:30:59.315Z,0.88
2019-02-14T23:33:48.902Z,0.94
2019-02-14T23:36:38.587Z,0.82
2019-02-14T23:39:27.774Z,0.77
2019-02-14T23:42:17.248Z,0.82
2019-02-14T23:45:07.783Z,0.68
2019-02-14T23:47:57.008Z,0.53
2019-02-14T23:50:46.894Z,0.60
2019-02-14T23:53:36.396Z,0.74
2019-02-14T23:56:26.301Z,0.84
2019-02-14T23:59:15.517Z,0.93
